createdAt,value
2019-05-03T00:01:17.217Z,99512.34
2019-05-03T00:04:22.288Z,99506.75
2019-05-03T00:07:25.136Z,99509.69
2019-05-03T00:10:28.333Z,99512.17
2019-05-03T00:13:32.516Z,99512.95
2019-05-03T00:16:37.551Z,99506.91
2019-05-03T00:19:42.230Z,99514.63
2019-05-03T00:22:45.188Z,99515.25
2019-05-03T00:25:48.089Z,99517.62
2019-05-03T00:28:52.045Z,99520.21
2019-05-03T00:31:55.521Z,99518.39
2019-05-03T00:35:01.869Z,99516.43
2019-05-03T00:38:06.804Z,99516.43
2019-05-03T00:41:09.658Z,99520.34
2019-05-03T00:44:12.603Z,99515.09
2019-05-03T00:47:16.627Z,99516.94
2019-05-03T00:50:19.542Z,99516.19
2019-05-03T00:53:22.543Z,99525.94
2019-05-03T00:56:25.532Z,99519.30
2019-05-03T00:59:28.448Z,99515.66
2019-05-03T01:02:31.966Z,99519.01
2019-05-03T01:05:35.005Z,99522.79
2019-05-03T01:08:37.939Z,99523.91
2019-05-03T01:11:41.790Z,99526.69
2019-05-03T01:14:46.785Z,99519.94
2019-05-03T01:17:49.695Z,99522.28
2019-05-03T01:20:52.985Z,99519.19
2019-05-03T01:23:55.919Z,99516.31
2019-05-03T01:26:58.856Z,99520.96
2019-05-03T01:30:02.968Z,99515.30
2019-05-03T01:33:07.295Z,99518.86
2019-05-03T01:36:11.977Z,99517.94
2019-05-03T01:39:15.053Z,99518.69
2019-05-03T01:42:17.966Z,99514.67
2019-05-03T01:45:22.748Z,99514.09
2019-05-03T01:48:38.752Z,99516.83
2019-05-03T01:52:02.089Z,99513.77
2019-05-03T01:55:05.409Z,99520.02
2019-05-03T01:58:12.494Z,99523.66
2019-05-03T02:01:42.202Z,99525.73
2019-05-03T02:04:54.025Z,99531.84
2019-05-03T02:07:56.925Z,99524.41
2019-05-03T02:10:59.772Z,99526.55
2019-05-03T02:14:03.909Z,99527.01
2019-05-03T02:17:06.795Z,99526.27
2019-05-03T02:20:09.745Z,99528.87
2019-05-03T02:23:12.613Z,99528.13
2019-05-03T02:26:15.500Z,99536.16
2019-05-03T02:29:18.428Z,99533.22
2019-05-03T02:32:23.273Z,99534.91
2019-05-03T02:35:26.164Z,99541.78
2019-05-03T02:38:29.315Z,99547.88
2019-05-03T02:41:32.942Z,99552.13
2019-05-03T02:44:38.155Z,99560.07
2019-05-03T02:47:57.075Z,99563.92
2019-05-03T02:50:59.922Z,99564.14
2019-05-03T02:54:05.674Z,99564.86
2019-05-03T02:57:08.769Z,99567.66
2019-05-03T03:00:16.447Z,99568.84
2019-05-03T03:03:25.425Z,99564.34
2019-05-03T03:06:30.282Z,99568.04
2019-05-03T03:09:36.026Z,99568.11
2019-05-03T03:12:42.119Z,99566.20
2019-05-03T03:15:50.341Z,99567.14
2019-05-03T03:18:58.743Z,99573.30
2019-05-03T03:22:06.373Z,99570.88
2019-05-03T03:25:17.813Z,99571.14
2019-05-03T03:28:25.272Z,99572.52
2019-05-03T03:32:18.423Z,99574.82
2019-05-03T03:35:29.675Z,99587.03
2019-05-03T03:38:31.940Z,99583.48
2019-05-03T03:41:35.481Z,99587.19
2019-05-03T03:44:39.624Z,99580.04
2019-05-03T03:47:46.606Z,99586.55
2019-05-03T03:50:52.427Z,99586.16
2019-05-03T03:53:59.194Z,99586.77
2019-05-03T03:57:07.911Z,99587.79
2019-05-03T04:00:10.263Z,99590.17
2019-05-03T04:03:15.788Z,99590.63
2019-05-03T04:06:20.714Z,99599.08
2019-05-03T04:09:25.579Z,99598.22
2019-05-03T04:12:28.767Z,99600.75
2019-05-03T04:15:51.633Z,99599.97
2019-05-03T04:19:17.140Z,99610.56
2019-05-03T04:22:19.513Z,99614.30
2019-05-03T04:25:22.767Z,99626.63
2019-05-03T04:28:26.114Z,99630.55
2019-05-03T04:31:29.039Z,99630.73
2019-05-03T04:34:31.984Z,99636.72
2019-05-03T04:37:35.991Z,99645.23
2019-05-03T04:40:39.090Z,99646.28
2019-05-03T04:43:42.027Z,99653.31
2019-05-03T04:46:46.515Z,99652.66
2019-05-03T04:49:49.709Z,99651.12
2019-05-03T04:52:52.621Z,99657.67
2019-05-03T04:55:55.984Z,99662.09
2019-05-03T04:58:59.083Z,99663.86
2019-05-03T05:02:02.024Z,99670.30
2019-05-03T05:05:06.272Z,99670.09
2019-05-03T05:08:09.427Z,99674.20
2019-05-03T05:11:12.342Z,99672.09
2019-05-03T05:14:15.521Z,99677.89
2019-05-03T05:17:28.812Z,99689.98
2019-05-03T05:20:48.749Z,99686.18
2019-05-03T05:24:05.536Z,99693.17
2019-05-03T05:27:29.441Z,99698.22
2019-05-03T05:30:32.484Z,99702.41
2019-05-03T05:33:35.738Z,99708.05
2019-05-03T05:36:38.633Z,99701.55
2019-05-03T05:39:44.701Z,99708.17
2019-05-03T05:42:47.792Z,99712.64
2019-05-03T05:45:50.722Z,99712.88
2019-05-03T05:48:55.439Z,99711.37
2019-05-03T05:51:58.558Z,99710.27
2019-05-03T05:55:36.696Z,99715.00
2019-05-03T05:58:47.362Z,99719.98
2019-05-03T06:02:09.902Z,99721.83
2019-05-03T06:05:14.824Z,99718.80
2019-05-03T06:08:40.154Z,99727.72
2019-05-03T06:11:56.551Z,99734.79
2019-05-03T06:15:04.769Z,99728.03
2019-05-03T06:18:14.710Z,99733.56
2019-05-03T06:21:28.792Z,99735.96
2019-05-03T06:24:37.011Z,99739.77
2019-05-03T06:27:39.943Z,99742.87
2019-05-03T06:30:54.399Z,99743.81
2019-05-03T06:33:57.444Z,99741.52
2019-05-03T06:37:04.478Z,99742.56
2019-05-03T06:40:07.827Z,99745.94
2019-05-03T06:43:12.915Z,99750.89
2019-05-03T06:46:18.108Z,99753.50
2019-05-03T06:49:20.357Z,99757.78
2019-05-03T06:52:27.655Z,99752.87
2019-05-03T06:55:28.100Z,99752.27
2019-05-03T06:58:33.713Z,99743.36
2019-05-03T07:01:55.487Z,99754.10
2019-05-03T07:04:59.495Z,99752.40
2019-05-03T07:08:20.932Z,99755.94
2019-05-03T07:11:24.773Z,99746.70
2019-05-03T07:14:28.190Z,99747.97
2019-05-03T07:17:31.483Z,99751.34
2019-05-03T07:20:56.949Z,99754.23
2019-05-03T07:23:59.712Z,99752.03
2019-05-03T07:27:02.616Z,99751.55
2019-05-03T07:30:06.021Z,99765.08
2019-05-03T07:33:16.080Z,99762.27
2019-05-03T07:36:19.316Z,99762.89
2019-05-03T07:39:24.348Z,99757.60
2019-05-03T07:42:27.048Z,99763.32
2019-05-03T07:45:30.268Z,99757.52
2019-05-03T07:48:35.337Z,99759.49
2019-05-03T07:51:38.431Z,99763.05
2019-05-03T07:54:41.348Z,99755.59
2019-05-03T07:57:56.110Z,99745.33
2019-05-03T08:01:06.042Z,99746.92
2019-05-03T08:04:05.822Z,99752.40
2019-05-03T08:07:20.642Z,99750.97
2019-05-03T08:10:16.086Z,99752.81
2019-05-03T08:13:19.051Z,99749.91
2019-05-03T08:16:21.983Z,99753.09
2019-05-03T08:19:26.957Z,99757.91
2019-05-03T08:22:29.747Z,99750.42
2019-05-03T08:25:32.604Z,99759.62
2019-05-03T08:28:36.550Z,99761.45
2019-05-03T08:31:57.090Z,99760.92
2019-05-03T08:35:24.421Z,99768.38
2019-05-03T08:38:27.848Z,99765.87
2019-05-03T08:41:32.688Z,99763.42
2019-05-03T08:44:35.618Z,99755.25
2019-05-03T08:47:38.529Z,99759.08
2019-05-03T08:50:41.464Z,99765.81
2019-05-03T08:53:45.889Z,99774.09
2019-05-03T08:56:49.473Z,99770.76
2019-05-03T08:59:54.950Z,99767.38
2019-05-03T09:02:58.072Z,99768.65
2019-05-03T09:06:01.038Z,99760.78
2019-05-03T09:09:07.341Z,99767.03
2019-05-03T09:12:10.513Z,99768.54
2019-05-03T09:15:15.178Z,99757.22
2019-05-03T09:18:18.256Z,99758.15
2019-05-03T09:21:21.192Z,99757.13
2019-05-03T09:24:24.565Z,99749.70
2019-05-03T09:27:27.732Z,99749.20
2019-05-03T09:30:30.750Z,99752.61
2019-05-03T09:33:35.569Z,99753.68
2019-05-03T09:36:38.629Z,99759.81
2019-05-03T09:39:41.545Z,99760.22
2019-05-03T09:42:45.753Z,99752.19
2019-05-03T09:45:48.672Z,99747.42
2019-05-03T09:48:51.632Z,99748.47
2019-05-03T09:51:55.009Z,99751.31
2019-05-03T09:54:59.955Z,99756.34
2019-05-03T09:58:05.277Z,99752.98
2019-05-03T10:01:08.541Z,99762.30
2019-05-03T10:04:12.065Z,99748.66
2019-05-03T10:07:15.425Z,99739.63
2019-05-03T10:10:18.511Z,99739.46
2019-05-03T10:13:23.456Z,99736.90
2019-05-03T10:16:28.756Z,99742.54
2019-05-03T10:19:37.644Z,99742.03
2019-05-03T10:22:36.523Z,99740.84
2019-05-03T10:25:40.555Z,99749.34
2019-05-03T10:28:43.580Z,99734.67
2019-05-03T10:31:54.671Z,99735.84
2019-05-03T10:35:01.374Z,99729.81
2019-05-03T10:38:05.792Z,99730.03
2019-05-03T10:41:09.220Z,99725.36
2019-05-03T10:44:12.139Z,99733.52
2019-05-03T10:47:15.148Z,99739.08
2019-05-03T10:50:18.182Z,99737.03
2019-05-03T10:53:31.981Z,99729.27
2019-05-03T10:56:49.510Z,99735.45
2019-05-03T10:59:52.451Z,99737.35
2019-05-03T11:03:00.493Z,99734.34
2019-05-03T11:06:05.387Z,99737.16
2019-05-03T11:09:08.460Z,99733.18
2019-05-03T11:12:11.659Z,99731.56
2019-05-03T11:15:15.029Z,99733.47
2019-05-03T11:18:18.091Z,99730.35
2019-05-03T11:21:28.173Z,99735.58
2019-05-03T11:24:27.584Z,99732.22
2019-05-03T11:27:55.166Z,99739.09
2019-05-03T11:31:17.064Z,99743.36
2019-05-03T11:34:22.761Z,99740.33
2019-05-03T11:37:45.317Z,99721.38
2019-05-03T11:40:48.519Z,99726.00
2019-05-03T11:43:51.447Z,99719.45
2019-05-03T11:46:55.146Z,99726.44
2019-05-03T11:49:58.246Z,99724.04
2019-05-03T11:53:01.159Z,99725.50
2019-05-03T11:56:05.547Z,99727.86
2019-05-03T11:59:08.624Z,99724.02
2019-05-03T12:02:40.086Z,99727.37
2019-05-03T12:05:46.512Z,99720.41
2019-05-03T12:08:49.421Z,99722.16
2019-05-03T12:11:55.399Z,99714.69
2019-05-03T12:14:59.576Z,99716.71
2019-05-03T12:18:06.197Z,99711.30
2019-05-03T12:21:12.078Z,99696.16
2019-05-03T12:24:16.154Z,99699.98
2019-05-03T12:27:19.587Z,99696.70
2019-05-03T12:30:27.009Z,99699.55
2019-05-03T12:33:27.598Z,99694.01
2019-05-03T12:36:30.578Z,99692.30
2019-05-03T12:39:35.821Z,99690.33
2019-05-03T12:42:38.345Z,99678.80
2019-05-03T12:45:41.270Z,99684.23
2019-05-03T12:48:44.806Z,99681.87
2019-05-03T12:51:48.908Z,99675.75
2019-05-03T12:54:51.822Z,99674.80
2019-05-03T12:57:55.612Z,99680.98
2019-05-03T13:01:33.989Z,99682.44
2019-05-03T13:04:33.236Z,99684.60
2019-05-03T13:07:45.511Z,99684.20
2019-05-03T13:10:48.616Z,99680.47
2019-05-03T13:13:51.863Z,99671.75
2019-05-03T13:16:55.231Z,99669.36
2019-05-03T13:19:58.342Z,99667.09
2019-05-03T13:23:01.280Z,99668.44
2019-05-03T13:26:05.583Z,99676.46
2019-05-03T13:29:09.027Z,99672.55
2019-05-03T13:32:11.934Z,99669.22
2019-05-03T13:35:15.149Z,99664.70
2019-05-03T13:38:19.394Z,99661.59
2019-05-03T13:41:22.300Z,99645.97
2019-05-03T13:44:25.243Z,99643.23
2019-05-03T13:47:28.145Z,99642.03
2019-05-03T13:50:32.222Z,99648.94
2019-05-03T13:53:35.161Z,99652.48
2019-05-03T13:56:38.081Z,99647.52
2019-05-03T13:59:40.997Z,99652.70
2019-05-03T14:02:44.912Z,99647.64
2019-05-03T14:05:48.034Z,99645.80
2019-05-03T14:08:51.039Z,99639.03
2019-05-03T14:11:55.349Z,99642.75
2019-05-03T14:14:58.436Z,99639.58
2019-05-03T14:18:01.359Z,99635.66
2019-05-03T14:21:15.077Z,99633.00
2019-05-03T14:24:18.599Z,99622.59
2019-05-03T14:27:21.525Z,99619.30
2019-05-03T14:30:25.544Z,99617.30
2019-05-03T14:33:28.489Z,99612.03
2019-05-03T14:36:31.402Z,99606.80
2019-05-03T14:39:34.387Z,99613.98
2019-05-03T14:42:37.318Z,99616.86
2019-05-03T14:45:40.213Z,99616.85
2019-05-03T14:48:43.145Z,99614.39
2019-05-03T14:51:46.061Z,99615.34
2019-05-03T14:54:51.427Z,99614.55
2019-05-03T14:58:05.788Z,99617.20
2019-05-03T15:01:25.640Z,99610.78
2019-05-03T15:04:28.917Z,99610.22
2019-05-03T15:07:31.819Z,99599.22
2019-05-03T15:10:35.142Z,99589.73
2019-05-03T15:13:38.106Z,99592.95
2019-05-03T15:16:41.123Z,99593.55
2019-05-03T15:19:45.390Z,99594.83
2019-05-03T15:22:48.396Z,99598.28
2019-05-03T15:25:51.336Z,99596.28
2019-05-03T15:28:55.438Z,99590.63
2019-05-03T15:31:58.466Z,99592.19
2019-05-03T15:35:01.397Z,99586.72
2019-05-03T15:38:05.382Z,99586.72
2019-05-03T15:41:08.707Z,99583.16
2019-05-03T15:44:25.281Z,99579.86
2019-05-03T15:47:41.954Z,99580.02
2019-05-03T15:50:44.886Z,99585.98
2019-05-03T15:53:47.784Z,99585.16
2019-05-03T15:56:50.708Z,99584.05
2019-05-03T15:59:55.105Z,99582.15
2019-05-03T16:03:07.470Z,99582.11
2019-05-03T16:06:04.938Z,99583.02
2019-05-03T16:09:08.115Z,99586.31
2019-05-03T16:12:11.756Z,99576.97
2019-05-03T16:15:15.117Z,99580.42
2019-05-03T16:18:18.038Z,99580.52
2019-05-03T16:21:20.942Z,99575.35
2019-05-03T16:24:24.946Z,99566.42
2019-05-03T16:27:47.646Z,99570.12
2019-05-03T16:30:56.661Z,99571.09
2019-05-03T16:33:59.903Z,99579.00
2019-05-03T16:37:04.457Z,99577.91
2019-05-03T16:40:07.485Z,99568.58
2019-05-03T16:43:10.409Z,99576.58
2019-05-03T16:46:14.522Z,99578.09
2019-05-03T16:49:17.686Z,99576.17
2019-05-03T16:52:20.590Z,99572.02
2019-05-03T16:55:25.175Z,99575.30
2019-05-03T16:58:28.564Z,99568.53
2019-05-03T17:01:31.499Z,99568.85
2019-05-03T17:04:57.138Z,99566.10
2019-05-03T17:08:31.628Z,99568.94
2019-05-03T17:11:34.856Z,99562.86
2019-05-03T17:14:37.808Z,99566.33
2019-05-03T17:17:40.719Z,99572.02
2019-05-03T17:20:45.332Z,99572.83
2019-05-03T17:23:48.478Z,99567.37
2019-05-03T17:26:51.759Z,99568.28
2019-05-03T17:29:55.400Z,99572.97
2019-05-03T17:32:58.518Z,99573.41
2019-05-03T17:36:01.458Z,99573.31
2019-05-03T17:39:09.816Z,99570.24
2019-05-03T17:42:22.079Z,99568.47
2019-05-03T17:45:30.805Z,99567.47
2019-05-03T17:48:34.875Z,99562.75
2019-05-03T17:51:48.560Z,99560.48
2019-05-03T17:55:11.094Z,99563.08
2019-05-03T17:58:36.992Z,99560.19
2019-05-03T18:01:58.068Z,99560.50
2019-05-03T18:05:20.839Z,99556.42
2019-05-03T18:08:35.388Z,99553.23
2019-05-03T18:11:40.622Z,99555.98
2019-05-03T18:14:45.049Z,99559.42
2019-05-03T18:17:48.182Z,99562.05
2019-05-03T18:20:51.093Z,99556.73
2019-05-03T18:23:54.528Z,99554.13
2019-05-03T18:26:57.625Z,99548.25
2019-05-03T18:30:00.555Z,99549.02
2019-05-03T18:33:04.849Z,99543.88
2019-05-03T18:36:08.055Z,99555.75
2019-05-03T18:39:11.489Z,99551.42
2019-05-03T18:42:21.518Z,99552.30
2019-05-03T18:45:42.632Z,99550.44
2019-05-03T18:48:45.803Z,99544.56
2019-05-03T18:51:49.088Z,99548.99
2019-05-03T18:54:52.308Z,99545.41
2019-05-03T18:57:55.235Z,99547.59
2019-05-03T19:00:58.194Z,99550.97
2019-05-03T19:04:12.342Z,99546.63
2019-05-03T19:07:37.799Z,99559.08
2019-05-03T19:11:04.543Z,99554.02
2019-05-03T19:14:08.956Z,99558.37
2019-05-03T19:17:37.783Z,99556.92
2019-05-03T19:20:40.842Z,99561.70
2019-05-03T19:23:44.816Z,99554.50
2019-05-03T19:26:47.976Z,99555.45
2019-05-03T19:29:50.916Z,99557.44
2019-05-03T19:32:55.202Z,99554.75
2019-05-03T19:36:00.247Z,99555.20
2019-05-03T19:39:05.329Z,99554.25
2019-05-03T19:42:10.499Z,99551.19
2019-05-03T19:45:15.164Z,99552.55
2019-05-03T19:48:18.263Z,99554.20
2019-05-03T19:51:21.212Z,99547.88
2019-05-03T19:54:24.411Z,99549.58
2019-05-03T19:57:34.816Z,99544.69
2019-05-03T20:00:46.023Z,99551.31
2019-05-03T20:03:55.419Z,99546.02
2019-05-03T20:07:10.857Z,99540.26
2019-05-03T20:10:14.979Z,99538.84
2019-05-03T20:13:31.759Z,99541.66
2019-05-03T20:16:24.129Z,99539.18
2019-05-03T20:19:27.016Z,99533.12
2019-05-03T20:22:29.988Z,99534.70
2019-05-03T20:25:35.003Z,99532.27
2019-05-03T20:28:37.925Z,99537.14
2019-05-03T20:31:42.266Z,99531.09
2019-05-03T20:34:45.180Z,99532.88
2019-05-03T20:37:48.144Z,99531.69
2019-05-03T20:40:51.046Z,99527.11
2019-05-03T20:44:14.316Z,99525.98
2019-05-03T20:47:37.111Z,99526.89
2019-05-03T20:50:40.417Z,99528.63
2019-05-03T20:53:44.928Z,99525.34
2019-05-03T20:56:47.970Z,99519.88
2019-05-03T20:59:52.032Z,99522.73
2019-05-03T21:02:57.301Z,99524.05
2019-05-03T21:06:02.426Z,99520.23
2019-05-03T21:09:06.908Z,99519.98
2019-05-03T21:12:11.721Z,99509.29
2019-05-03T21:15:24.699Z,99520.22
2019-05-03T21:18:43.533Z,99520.67
2019-05-03T21:21:54.931Z,99513.66
2019-05-03T21:25:11.999Z,99507.81
2019-05-03T21:28:16.173Z,99503.37
2019-05-03T21:31:20.340Z,99495.69
2019-05-03T21:34:25.047Z,99494.78
2019-05-03T21:37:28.450Z,99491.56
2019-05-03T21:40:31.358Z,99479.55
2019-05-03T21:43:34.857Z,99477.47
2019-05-03T21:46:46.283Z,99483.34
2019-05-03T21:49:50.348Z,99486.28
2019-05-03T21:52:57.496Z,99489.46
2019-05-03T21:56:01.158Z,99495.06
2019-05-03T21:59:05.559Z,99497.93
2019-05-03T22:02:08.691Z,99496.38
2019-05-03T22:05:11.636Z,99494.45
2019-05-03T22:08:14.541Z,99492.91
2019-05-03T22:11:17.477Z,99488.11
2019-05-03T22:14:28.996Z,99481.34
2019-05-03T22:17:50.009Z,99489.13
2019-05-03T22:20:58.951Z,99480.48
2019-05-03T22:24:14.660Z,99477.91
2019-05-03T22:27:19.524Z,99480.53
2019-05-03T22:30:24.333Z,99478.50
2019-05-03T22:33:27.248Z,99472.27
2019-05-03T22:36:30.176Z,99472.97
2019-05-03T22:39:33.430Z,99470.98
2019-05-03T22:42:36.355Z,99472.06
2019-05-03T22:45:39.298Z,99472.66
2019-05-03T22:48:42.206Z,99469.36
2019-05-03T22:51:45.291Z,99472.45
2019-05-03T22:54:48.477Z,99459.67
2019-05-03T22:57:51.440Z,99455.11
2019-05-03T23:00:55.100Z,99453.78
2019-05-03T23:03:58.112Z,99452.14
2019-05-03T23:07:01.019Z,99452.14
2019-05-03T23:10:04.631Z,99446.53
2019-05-03T23:13:07.619Z,99447.64
2019-05-03T23:16:10.551Z,99442.63
2019-05-03T23:19:14.984Z,99436.67
2019-05-03T23:22:25.028Z,99427.00
2019-05-03T23:25:30.655Z,99431.05
2019-05-03T23:28:35.523Z,99433.28
2019-05-03T23:31:38.109Z,99427.86
2019-05-03T23:34:41.049Z,99423.76
2019-05-03T23:37:45.455Z,99413.02
2019-05-03T23:40:48.411Z,99412.53
2019-05-03T23:43:51.351Z,99409.84
2019-05-03T23:47:16.874Z,99413.86
2019-05-03T23:50:22.062Z,99407.23
2019-05-03T23:53:24.982Z,99401.52
2019-05-03T23:56:27.892Z,99401.13
2019-05-03T23:59:30.849Z,99396.02
